sensor_id;sensor_type;location;lat;lon;timestamp;P1;durP1;ratioP1;P2;durP2;ratioP2
1414;SDS011;702;49.466;11.086;2024-03-23T00:55:54;12.37;;;11.07;;
1414;SDS011;702;49.466;11.086;2024-03-23T00:58:21;11.97;;;10.20;;
1414;SDS011;702;49.466;11.086;2024-03-23T01:00:47;11.27;;;10.13;;
1414;SDS011;702;49.466;11.086;2024-03-23T01:03:14;12.20;;;10.47;;
1414;SDS011;702;49.466;11.086;2024-03-23T01:05:40;11.80;;;10.30;;
1414;SDS011;702;49.466;11.086;2024-03-23T01:08:07;14.40;;;10.50;;
1414;SDS011;702;49.466;11.086;2024-03-23T01:10:34;13.50;;;10.60;;
1414;SDS011;702;49.466;11.086;2024-03-23T01:13:02;12.23;;;10.90;;
1414;SDS011;702;49.466;11.086;2024-03-23T01:15:29;14.97;;;11.50;;
1414;SDS011;702;49.466;11.086;2024-03-23T01:17:56;11.27;;;10.00;;
1414;SDS011;702;49.466;11.086;2024-03-23T01:20:22;11.87;;;10.67;;
1414;SDS011;702;49.466;11.086;2024-03-23T01:22:49;10.60;;;9.23;;
1414;SDS011;702;49.466;11.086;2024-03-23T01:25:15;12.83;;;10.40;;
1414;SDS011;702;49.466;11.086;2024-03-23T01:27:43;10.53;;;9.30;;
1414;SDS011;702;49.466;11.086;2024-03-23T01:30:10;13.47;;;9.57;;
1414;SDS011;702;49.466;11.086;2024-03-23T01:32:39;10.40;;;9.40;;
1414;SDS011;702;49.466;11.086;2024-03-23T01:35:05;9.80;;;8.83;;
1414;SDS011;702;49.466;11.086;2024-03-23T01:37:33;10.20;;;9.20;;
1414;SDS011;702;49.466;11.086;2024-03-23T01:39:59;10.93;;;9.07;;
1414;SDS011;702;49.466;11.086;2024-03-23T01:42:29;12.27;;;9.00;;
1414;SDS011;702;49.466;11.086;2024-03-23T01:44:55;10.00;;;9.00;;
1414;SDS011;702;49.466;11.086;2024-03-23T01:47:24;9.60;;;6.87;;
1414;SDS011;702;49.466;11.086;2024-03-23T01:49:50;8.80;;;8.00;;
1414;SDS011;702;49.466;11.086;2024-03-23T01:52:19;10.80;;;8.47;;
1414;SDS011;702;49.466;11.086;2024-03-23T01:54:45;10.30;;;8.27;;
1414;SDS011;702;49.466;11.086;2024-03-23T01:57:12;9.40;;;8.43;;
1414;SDS011;702;49.466;11.086;2024-03-23T01:59:39;11.53;;;8.87;;
1414;SDS011;702;49.466;11.086;2024-03-23T02:02:06;9.23;;;8.30;;
1414;SDS011;702;49.466;11.086;2024-03-23T02:04:33;8.20;;;7.43;;
1414;SDS011;702;49.466;11.086;2024-03-23T02:07:00;12.20;;;8.47;;
1414;SDS011;702;49.466;11.086;2024-03-23T02:09:26;8.27;;;7.40;;
1414;SDS011;702;49.466;11.086;2024-03-23T02:11:54;9.60;;;8.60;;
1414;SDS011;702;49.466;11.086;2024-03-23T02:14:20;8.33;;;7.10;;
1414;SDS011;702;49.466;11.086;2024-03-23T02:16:48;9.57;;;7.43;;
1414;SDS011;702;49.466;11.086;2024-03-23T02:19:14;9.00;;;7.93;;
1414;SDS011;702;49.466;11.086;2024-03-23T02:21:42;8.33;;;7.53;;
1414;SDS011;702;49.466;11.086;2024-03-23T02:24:10;9.20;;;8.27;;
1414;SDS011;702;49.466;11.086;2024-03-23T02:26:37;10.77;;;8.17;;
1414;SDS011;702;49.466;11.086;2024-03-23T02:29:03;8.73;;;7.10;;
1414;SDS011;702;49.466;11.086;2024-03-23T02:31:30;8.03;;;7.20;;
1414;SDS011;702;49.466;11.086;2024-03-23T02:33:57;9.10;;;8.20;;
1414;SDS011;702;49.466;11.086;2024-03-23T02:36:24;11.10;;;8.67;;
1414;SDS011;702;49.466;11.086;2024-03-23T02:38:51;8.57;;;7.60;;
1414;SDS011;702;49.466;11.086;2024-03-23T02:41:20;8.37;;;7.57;;
1414;SDS011;702;49.466;11.086;2024-03-23T02:43:48;10.90;;;8.40;;
1414;SDS011;702;49.466;11.086;2024-03-23T02:46:16;8.87;;;8.07;;
1414;SDS011;702;49.466;11.086;2024-03-23T02:48:42;9.17;;;7.33;;
1414;SDS011;702;49.466;11.086;2024-03-23T02:51:09;9.20;;;8.27;;
1414;SDS011;702;49.466;11.086;2024-03-23T02:53:36;9.90;;;8.17;;
1414;SDS011;702;49.466;11.086;2024-03-23T02:56:03;8.50;;;7.60;;
1414;SDS011;702;49.466;11.086;2024-03-23T02:58:31;9.23;;;7.70;;
1414;SDS011;702;49.466;11.086;2024-03-23T03:00:58;8.70;;;7.57;;
1414;SDS011;702;49.466;11.086;2024-03-23T03:03:24;8.63;;;7.80;;
1414;SDS011;702;49.466;11.086;2024-03-23T03:05:54;10.60;;;8.13;;
1414;SDS011;702;49.466;11.086;2024-03-23T03:08:21;10.47;;;7.73;;
1414;SDS011;702;49.466;11.086;2024-03-23T03:10:48;9.33;;;8.43;;
1414;SDS011;702;49.466;11.086;2024-03-23T03:13:15;12.37;;;8.30;;
1414;SDS011;702;49.466;11.086;2024-03-23T03:15:43;13.43;;;7.83;;
1414;SDS011;702;49.466;11.086;2024-03-23T03:18:09;8.00;;;7.03;;
1414;SDS011;702;49.466;11.086;2024-03-23T03:20:38;8.17;;;7.37;;
1414;SDS011;702;49.466;11.086;2024-03-23T03:23:04;8.93;;;8.13;;
1414;SDS011;702;49.466;11.086;2024-03-23T03:25:31;12.90;;;8.47;;
1414;SDS011;702;49.466;11.086;2024-03-23T03:27:58;9.53;;;8.40;;
1414;SDS011;702;49.466;11.086;2024-03-23T03:30:25;9.40;;;8.00;;
1414;SDS011;702;49.466;11.086;2024-03-23T03:32:53;9.50;;;8.60;;
1414;SDS011;702;49.466;11.086;2024-03-23T03:35:20;10.17;;;9.17;;
1414;SDS011;702;49.466;11.086;2024-03-23T03:37:47;9.57;;;8.30;;
1414;SDS011;702;49.466;11.086;2024-03-23T03:40:14;9.40;;;7.93;;
1414;SDS011;702;49.466;11.086;2024-03-23T03:42:41;9.80;;;8.80;;
1414;SDS011;702;49.466;11.086;2024-03-23T03:45:08;8.73;;;7.93;;
1414;SDS011;702;49.466;11.086;2024-03-23T03:47:34;9.33;;;8.43;;
1414;SDS011;702;49.466;11.086;2024-03-23T03:50:04;10.33;;;7.90;;
1414;SDS011;702;49.466;11.086;2024-03-23T03:52:31;10.10;;;8.80;;
1414;SDS011;702;49.466;11.086;2024-03-23T03:55:01;12.30;;;8.50;;
1414;SDS011;702;49.466;11.086;2024-03-23T03:57:28;10.83;;;9.70;;
1414;SDS011;702;49.466;11.086;2024-03-23T03:59:55;10.30;;;8.23;;
1414;SDS011;702;49.466;11.086;2024-03-23T04:02:23;8.80;;;7.90;;
1414;SDS011;702;49.466;11.086;2024-03-23T04:04:50;9.50;;;8.60;;
1414;SDS011;702;49.466;11.086;2024-03-23T04:07:17;9.23;;;8.30;;
1414;SDS011;702;49.466;11.086;2024-03-23T04:09:46;10.17;;;9.17;;
1414;SDS011;702;49.466;11.086;2024-03-23T04:12:12;10.43;;;9.30;;
1414;SDS011;702;49.466;11.086;2024-03-23T04:14:39;10.43;;;8.87;;
1414;SDS011;702;49.466;11.086;2024-03-23T04:17:06;13.50;;;8.97;;
1414;SDS011;702;49.466;11.086;2024-03-23T04:19:33;10.87;;;9.70;;
1414;SDS011;702;49.466;11.086;2024-03-23T04:21:59;9.87;;;8.70;;
1414;SDS011;702;49.466;11.086;2024-03-23T04:24:28;10.90;;;8.80;;
1414;SDS011;702;49.466;11.086;2024-03-23T04:26:54;11.17;;;8.93;;
1414;SDS011;702;49.466;11.086;2024-03-23T04:29:21;13.10;;;9.17;;
1414;SDS011;702;49.466;11.086;2024-03-23T04:31:47;10.10;;;8.77;;
1414;SDS011;702;49.466;11.086;2024-03-23T04:34:15;12.77;;;11.03;;
1414;SDS011;702;49.466;11.086;2024-03-23T04:36:41;13.97;;;9.47;;
1414;SDS011;702;49.466;11.086;2024-03-23T04:39:08;12.70;;;9.50;;
1414;SDS011;702;49.466;11.086;2024-03-23T04:41:37;10.70;;;9.60;;
1414;SDS011;702;49.466;11.086;2024-03-23T04:44:04;10.77;;;8.87;;
1414;SDS011;702;49.466;11.086;2024-03-23T04:46:31;10.50;;;9.40;;
1414;SDS011;702;49.466;11.086;2024-03-23T04:48:59;9.63;;;8.67;;
1414;SDS011;702;49.466;11.086;2024-03-23T04:51:26;12.20;;;9.97;;
1414;SDS011;702;49.466;11.086;2024-03-23T04:53:53;10.00;;;9.00;;
1414;SDS011;702;49.466;11.086;2024-03-23T04:56:20;9.43;;;8.53;;
1414;SDS011;702;49.466;11.086;2024-03-23T04:58:49;15.23;;;9.77;;
1414;SDS011;702;49.466;11.086;2024-03-23T05:01:15;10.17;;;9.17;;
1414;SDS011;702;49.466;11.086;2024-03-23T05:03:42;11.40;;;10.17;;
1414;SDS011;702;49.466;11.086;2024-03-23T05:06:08;9.60;;;8.70;;
1414;SDS011;702;49.466;11.086;2024-03-23T05:08:35;10.97;;;9.80;;
1414;SDS011;702;49.466;11.086;2024-03-23T05:11:02;11.70;;;8.93;;
1414;SDS011;702;49.466;11.086;2024-03-23T05:13:30;10.80;;;9.70;;
1414;SDS011;702;49.466;11.086;2024-03-23T05:15:58;10.97;;;8.77;;
1414;SDS011;702;49.466;11.086;2024-03-23T05:18:25;10.40;;;9.20;;
1414;SDS011;702;49.466;11.086;2024-03-23T05:20:55;10.20;;;9.10;;
1414;SDS011;702;49.466;11.086;2024-03-23T05:23:23;10.70;;;8.07;;
1414;SDS011;702;49.466;11.086;2024-03-23T05:25:49;9.20;;;8.20;;
1414;SDS011;702;49.466;11.086;2024-03-23T05:28:16;11.13;;;8.07;;
1414;SDS011;702;49.466;11.086;2024-03-23T05:30:43;11.10;;;8.80;;
1414;SDS011;702;49.466;11.086;2024-03-23T05:33:12;9.40;;;8.50;;
1414;SDS011;702;49.466;11.086;2024-03-23T05:35:38;9.93;;;9.03;;
1414;SDS011;702;49.466;11.086;2024-03-23T05:38:05;9.60;;;8.70;;
1414;SDS011;702;49.466;11.086;2024-03-23T05:40:31;13.40;;;8.80;;
1414;SDS011;702;49.466;11.086;2024-03-23T05:43:02;10.70;;;8.70;;
1414;SDS011;702;49.466;11.086;2024-03-23T05:45:29;9.90;;;8.40;;
1414;SDS011;702;49.466;11.086;2024-03-23T05:47:56;9.23;;;8.23;;
1414;SDS011;702;49.466;11.086;2024-03-23T05:50:24;11.53;;;8.70;;
1414;SDS011;702;49.466;11.086;2024-03-23T05:52:53;9.57;;;8.37;;
1414;SDS011;702;49.466;11.086;2024-03-23T05:55:19;8.10;;;7.00;;
1414;SDS011;702;49.466;11.086;2024-03-23T05:57:47;7.80;;;6.70;;
1414;SDS011;702;49.466;11.086;2024-03-23T06:00:13;7.93;;;7.10;;
1414;SDS011;702;49.466;11.086;2024-03-23T06:02:42;10.40;;;7.50;;
1414;SDS011;702;49.466;11.086;2024-03-23T06:05:10;9.40;;;7.10;;
1414;SDS011;702;49.466;11.086;2024-03-23T06:07:38;8.07;;;7.27;;
1414;SDS011;702;49.466;11.086;2024-03-23T06:10:05;9.60;;;7.13;;
1414;SDS011;702;49.466;11.086;2024-03-23T06:12:33;8.33;;;7.50;;
1414;SDS011;702;49.466;11.086;2024-03-23T06:14:59;7.17;;;6.47;;
1414;SDS011;702;49.466;11.086;2024-03-23T06:17:27;8.40;;;7.10;;
1414;SDS011;702;49.466;11.086;2024-03-23T06:19:53;8.30;;;7.00;;
1414;SDS011;702;49.466;11.086;2024-03-23T06:22:20;9.93;;;7.23;;
1414;SDS011;702;49.466;11.086;2024-03-23T06:24:48;8.07;;;7.27;;
1414;SDS011;702;49.466;11.086;2024-03-23T06:27:15;9.67;;;7.53;;
1414;SDS011;702;49.466;11.086;2024-03-23T06:29:42;8.83;;;7.93;;
1414;SDS011;702;49.466;11.086;2024-03-23T06:32:09;8.90;;;8.10;;
1414;SDS011;702;49.466;11.086;2024-03-23T06:34:37;9.27;;;8.23;;
1414;SDS011;702;49.466;11.086;2024-03-23T06:37:04;8.87;;;7.97;;
1414;SDS011;702;49.466;11.086;2024-03-23T06:39:30;10.87;;;9.40;;
1414;SDS011;702;49.466;11.086;2024-03-23T06:41:59;11.27;;;9.20;;
1414;SDS011;702;49.466;11.086;2024-03-23T06:44:25;11.90;;;10.33;;
1414;SDS011;702;49.466;11.086;2024-03-23T06:46:53;11.13;;;9.77;;
1414;SDS011;702;49.466;11.086;2024-03-23T06:49:19;12.67;;;11.20;;
1414;SDS011;702;49.466;11.086;2024-03-23T06:51:46;12.20;;;10.63;;
1414;SDS011;702;49.466;11.086;2024-03-23T06:54:13;11.43;;;9.77;;
1414;SDS011;702;49.466;11.086;2024-03-23T06:56:40;12.30;;;11.00;;
1414;SDS011;702;49.466;11.086;2024-03-23T06:59:08;12.90;;;10.63;;
1414;SDS011;702;49.466;11.086;2024-03-23T07:01:36;13.27;;;10.50;;
1414;SDS011;702;49.466;11.086;2024-03-23T07:04:03;11.10;;;9.80;;
1414;SDS011;702;49.466;11.086;2024-03-23T07:06:31;11.33;;;9.90;;
1414;SDS011;702;49.466;11.086;2024-03-23T07:08:58;10.70;;;9.40;;
1414;SDS011;702;49.466;11.086;2024-03-23T07:11:25;11.70;;;10.20;;
1414;SDS011;702;49.466;11.086;2024-03-23T07:13:52;9.90;;;8.30;;
1414;SDS011;702;49.466;11.086;2024-03-23T07:16:25;12.63;;;9.27;;
1414;SDS011;702;49.466;11.086;2024-03-23T07:18:52;10.77;;;8.67;;
1414;SDS011;702;49.466;11.086;2024-03-23T07:21:21;12.37;;;9.57;;
1414;SDS011;702;49.466;11.086;2024-03-23T07:23:47;10.97;;;8.80;;
1414;SDS011;702;49.466;11.086;2024-03-23T07:26:15;12.27;;;8.30;;
1414;SDS011;702;49.466;11.086;2024-03-23T07:28:43;8.20;;;7.20;;
1414;SDS011;702;49.466;11.086;2024-03-23T07:31:11;7.73;;;6.80;;
1414;SDS011;702;49.466;11.086;2024-03-23T07:33:43;9.00;;;7.50;;
1414;SDS011;702;49.466;11.086;2024-03-23T07:36:13;8.03;;;6.87;;
1414;SDS011;702;49.466;11.086;2024-03-23T07:38:41;8.63;;;7.10;;
1414;SDS011;702;49.466;11.086;2024-03-23T07:41:10;9.57;;;6.27;;
1414;SDS011;702;49.466;11.086;2024-03-23T07:43:38;7.50;;;6.70;;
1414;SDS011;702;49.466;11.086;2024-03-23T07:46:10;7.90;;;6.40;;
1414;SDS011;702;49.466;11.086;2024-03-23T07:48:37;8.43;;;6.90;;
1414;SDS011;702;49.466;11.086;2024-03-23T07:51:16;7.73;;;6.37;;
1414;SDS011;702;49.466;11.086;2024-03-23T07:53:46;8.83;;;7.30;;
1414;SDS011;702;49.466;11.086;2024-03-23T07:56:13;8.63;;;6.73;;
1414;SDS011;702;49.466;11.086;2024-03-23T07:58:43;8.40;;;7.27;;
1414;SDS011;702;49.466;11.086;2024-03-23T08:01:11;8.70;;;6.97;;
1414;SDS011;702;49.466;11.086;2024-03-23T08:03:40;6.87;;;6.23;;
1414;SDS011;702;49.466;11.086;2024-03-23T08:06:12;9.60;;;7.30;;
1414;SDS011;702;49.466;11.086;2024-03-23T08:08:42;8.07;;;6.47;;
1414;SDS011;702;49.466;11.086;2024-03-23T08:11:10;7.63;;;6.93;;
1414;SDS011;702;49.466;11.086;2024-03-23T08:13:39;7.93;;;6.53;;
1414;SDS011;702;49.466;11.086;2024-03-23T08:16:08;7.90;;;6.57;;
1414;SDS011;702;49.466;11.086;2024-03-23T08:18:37;8.77;;;7.30;;
1414;SDS011;702;49.466;11.086;2024-03-23T08:21:04;11.47;;;8.03;;
1414;SDS011;702;49.466;11.086;2024-03-23T08:23:35;6.63;;;5.80;;
1414;SDS011;702;49.466;11.086;2024-03-23T08:26:05;5.13;;;4.50;;
1414;SDS011;702;49.466;11.086;2024-03-23T08:28:35;5.20;;;3.90;;
1414;SDS011;702;49.466;11.086;2024-03-23T08:31:04;8.57;;;4.90;;
1414;SDS011;702;49.466;11.086;2024-03-23T08:33:33;5.17;;;4.60;;
1414;SDS011;702;49.466;11.086;2024-03-23T08:36:04;7.13;;;5.40;;
1414;SDS011;702;49.466;11.086;2024-03-23T08:38:38;6.70;;;4.83;;
1414;SDS011;702;49.466;11.086;2024-03-23T08:41:06;5.00;;;4.50;;
1414;SDS011;702;49.466;11.086;2024-03-23T08:43:36;5.97;;;4.40;;
1414;SDS011;702;49.466;11.086;2024-03-23T08:46:05;7.20;;;2.37;;
1414;SDS011;702;49.466;11.086;2024-03-23T08:48:43;3.10;;;2.60;;
1414;SDS011;702;49.466;11.086;2024-03-23T08:51:12;2.67;;;2.43;;
1414;SDS011;702;49.466;11.086;2024-03-23T08:53:45;2.53;;;2.33;;
1414;SDS011;702;49.466;11.086;2024-03-23T08:56:12;3.60;;;3.30;;
1414;SDS011;702;49.466;11.086;2024-03-23T08:58:41;4.43;;;3.50;;
1414;SDS011;702;49.466;11.086;2024-03-23T09:01:09;3.13;;;2.50;;
1414;SDS011;702;49.466;11.086;2024-03-23T09:03:43;2.80;;;2.53;;
1414;SDS011;702;49.466;11.086;2024-03-23T09:06:12;2.30;;;2.17;;
1414;SDS011;702;49.466;11.086;2024-03-23T09:08:49;2.43;;;2.23;;
1414;SDS011;702;49.466;11.086;2024-03-23T09:11:15;1.83;;;1.73;;
1414;SDS011;702;49.466;11.086;2024-03-23T09:13:42;2.30;;;2.10;;
1414;SDS011;702;49.466;11.086;2024-03-23T09:16:09;2.20;;;2.00;;
1414;SDS011;702;49.466;11.086;2024-03-23T09:18:36;1.67;;;1.50;;
1414;SDS011;702;49.466;11.086;2024-03-23T09:21:04;1.93;;;1.77;;
1414;SDS011;702;49.466;11.086;2024-03-23T09:23:38;1.50;;;1.40;;
1414;SDS011;702;49.466;11.086;2024-03-23T09:26:06;1.63;;;1.00;;
1414;SDS011;702;49.466;11.086;2024-03-23T09:28:33;1.43;;;1.00;;
1414;SDS011;702;49.466;11.086;2024-03-23T09:31:02;1.37;;;0.80;;
1414;SDS011;702;49.466;11.086;2024-03-23T09:33:30;0.67;;;0.63;;
1414;SDS011;702;49.466;11.086;2024-03-23T09:35:56;0.57;;;0.57;;
1414;SDS011;702;49.466;11.086;2024-03-23T09:38:23;1.00;;;0.80;;
1414;SDS011;702;49.466;11.086;2024-03-23T09:40:52;1.03;;;0.63;;
1414;SDS011;702;49.466;11.086;2024-03-23T09:43:21;0.50;;;0.50;;
1414;SDS011;702;49.466;11.086;2024-03-23T09:45:47;0.97;;;0.50;;
1414;SDS011;702;49.466;11.086;2024-03-23T09:48:16;0.50;;;0.43;;
1414;SDS011;702;49.466;11.086;2024-03-23T09:50:42;1.57;;;0.80;;
1414;SDS011;702;49.466;11.086;2024-03-23T09:53:12;0.97;;;0.43;;
1414;SDS011;702;49.466;11.086;2024-03-23T09:55:39;0.40;;;0.33;;
1414;SDS011;702;49.466;11.086;2024-03-23T09:58:11;0.60;;;0.50;;
1414;SDS011;702;49.466;11.086;2024-03-23T10:00:40;4.73;;;0.40;;
1414;SDS011;702;49.466;11.086;2024-03-23T10:03:10;1.37;;;0.70;;
1414;SDS011;702;49.466;11.086;2024-03-23T10:05:36;0.80;;;0.40;;
1414;SDS011;702;49.466;11.086;2024-03-23T10:08:17;0.50;;;0.40;;
1414;SDS011;702;49.466;11.086;2024-03-23T10:10:45;0.83;;;0.40;;
1414;SDS011;702;49.466;11.086;2024-03-23T10:13:26;0.60;;;0.37;;
1414;SDS011;702;49.466;11.086;2024-03-23T10:16:03;1.00;;;0.40;;
1414;SDS011;702;49.466;11.086;2024-03-23T10:18:36;0.40;;;0.40;;
1414;SDS011;702;49.466;11.086;2024-03-23T10:21:06;0.70;;;0.40;;
1414;SDS011;702;49.466;11.086;2024-03-23T10:23:36;0.67;;;0.67;;
1414;SDS011;702;49.466;11.086;2024-03-23T10:26:13;0.67;;;0.67;;
1414;SDS011;702;49.466;11.086;2024-03-23T10:28:52;1.63;;;0.53;;
1414;SDS011;702;49.466;11.086;2024-03-23T10:31:23;0.90;;;0.80;;
1414;SDS011;702;49.466;11.086;2024-03-23T10:33:51;1.07;;;0.80;;
1414;SDS011;702;49.466;11.086;2024-03-23T10:36:19;1.50;;;0.70;;
1414;SDS011;702;49.466;11.086;2024-03-23T10:38:47;1.60;;;0.90;;
1414;SDS011;702;49.466;11.086;2024-03-23T10:41:16;1.53;;;1.43;;
1414;SDS011;702;49.466;11.086;2024-03-23T10:43:45;1.47;;;1.17;;
1414;SDS011;702;49.466;11.086;2024-03-23T10:46:13;2.73;;;1.93;;
1414;SDS011;702;49.466;11.086;2024-03-23T10:48:41;3.33;;;1.90;;
1414;SDS011;702;49.466;11.086;2024-03-23T10:51:10;2.83;;;1.50;;
1414;SDS011;702;49.466;11.086;2024-03-23T10:53:41;2.57;;;1.63;;
1414;SDS011;702;49.466;11.086;2024-03-23T10:56:07;2.13;;;1.43;;
1414;SDS011;702;49.466;11.086;2024-03-23T10:58:39;1.20;;;1.00;;
1414;SDS011;702;49.466;11.086;2024-03-23T11:01:10;3.17;;;1.43;;
1414;SDS011;702;49.466;11.086;2024-03-23T11:03:39;2.10;;;1.87;;
1414;SDS011;702;49.466;11.086;2024-03-23T11:06:10;2.80;;;1.40;;
1414;SDS011;702;49.466;11.086;2024-03-23T11:09:02;1.93;;;1.73;;
1414;SDS011;702;49.466;11.086;2024-03-23T11:11:28;2.30;;;1.63;;
1414;SDS011;702;49.466;11.086;2024-03-23T11:13:59;2.37;;;1.80;;
1414;SDS011;702;49.466;11.086;2024-03-23T11:16:26;2.00;;;1.77;;
1414;SDS011;702;49.466;11.086;2024-03-23T11:22:02;3.40;;;2.03;;
1414;SDS011;702;49.466;11.086;2024-03-23T11:24:30;3.07;;;2.00;;
1414;SDS011;702;49.466;11.086;2024-03-23T11:26:57;3.53;;;2.70;;
1414;SDS011;702;49.466;11.086;2024-03-23T11:29:26;2.73;;;2.20;;
1414;SDS011;702;49.466;11.086;2024-03-23T11:31:55;3.30;;;2.50;;
1414;SDS011;702;49.466;11.086;2024-03-23T11:34:28;3.10;;;2.03;;
1414;SDS011;702;49.466;11.086;2024-03-23T11:37:03;4.83;;;2.60;;
1414;SDS011;702;49.466;11.086;2024-03-23T11:39:31;3.80;;;2.10;;
1414;SDS011;702;49.466;11.086;2024-03-23T11:41:57;3.47;;;2.40;;
1414;SDS011;702;49.466;11.086;2024-03-23T11:44:25;5.90;;;2.40;;
1414;SDS011;702;49.466;11.086;2024-03-23T11:46:53;2.77;;;1.57;;
1414;SDS011;702;49.466;11.086;2024-03-23T11:49:33;2.87;;;2.00;;
1414;SDS011;702;49.466;11.086;2024-03-23T11:52:07;4.03;;;2.20;;
1414;SDS011;702;49.466;11.086;2024-03-23T11:54:34;3.13;;;2.17;;
1414;SDS011;702;49.466;11.086;2024-03-23T11:57:02;3.83;;;2.33;;
1414;SDS011;702;49.466;11.086;2024-03-23T11:59:33;5.17;;;2.47;;
1414;SDS011;702;49.466;11.086;2024-03-23T12:02:05;5.17;;;3.30;;
1414;SDS011;702;49.466;11.086;2024-03-23T12:04:34;2.23;;;1.93;;
1414;SDS011;702;49.466;11.086;2024-03-23T12:07:13;1.90;;;1.80;;
1414;SDS011;702;49.466;11.086;2024-03-23T12:09:43;4.30;;;2.40;;
1414;SDS011;702;49.466;11.086;2024-03-23T12:12:13;5.53;;;2.10;;
1414;SDS011;702;49.466;11.086;2024-03-23T12:14:42;4.40;;;2.53;;
1414;SDS011;702;49.466;11.086;2024-03-23T12:17:12;3.37;;;1.80;;
1414;SDS011;702;49.466;11.086;2024-03-23T12:19:44;3.90;;;1.93;;
1414;SDS011;702;49.466;11.086;2024-03-23T12:22:10;2.47;;;1.70;;
1414;SDS011;702;49.466;11.086;2024-03-23T12:24:39;3.00;;;2.40;;
1414;SDS011;702;49.466;11.086;2024-03-23T12:27:10;6.00;;;3.00;;
1414;SDS011;702;49.466;11.086;2024-03-23T12:29:37;2.80;;;2.20;;
1414;SDS011;702;49.466;11.086;2024-03-23T12:32:05;6.83;;;2.50;;
1414;SDS011;702;49.466;11.086;2024-03-23T12:34:32;4.47;;;2.50;;
1414;SDS011;702;49.466;11.086;2024-03-23T12:36:59;3.90;;;2.23;;
1414;SDS011;702;49.466;11.086;2024-03-23T12:39:27;3.10;;;2.60;;
1414;SDS011;702;49.466;11.086;2024-03-23T12:41:53;4.40;;;2.90;;
1414;SDS011;702;49.466;11.086;2024-03-23T12:44:22;7.87;;;2.87;;
1414;SDS011;702;49.466;11.086;2024-03-23T12:46:48;5.93;;;2.80;;
1414;SDS011;702;49.466;11.086;2024-03-23T12:49:15;6.80;;;1.83;;
1414;SDS011;702;49.466;11.086;2024-03-23T12:51:46;5.30;;;3.00;;
1414;SDS011;702;49.466;11.086;2024-03-23T12:54:21;5.57;;;2.10;;
1414;SDS011;702;49.466;11.086;2024-03-23T12:56:48;6.73;;;2.87;;
1414;SDS011;702;49.466;11.086;2024-03-23T12:59:15;4.90;;;2.60;;
1414;SDS011;702;49.466;11.086;2024-03-23T13:01:44;5.13;;;3.40;;
1414;SDS011;702;49.466;11.086;2024-03-23T13:04:11;5.73;;;2.73;;
1414;SDS011;702;49.466;11.086;2024-03-23T13:06:37;4.00;;;2.40;;
1414;SDS011;702;49.466;11.086;2024-03-23T13:09:04;3.93;;;2.60;;
1414;SDS011;702;49.466;11.086;2024-03-23T13:11:30;4.43;;;3.10;;
1414;SDS011;702;49.466;11.086;2024-03-23T13:13:59;4.77;;;2.50;;
1414;SDS011;702;49.466;11.086;2024-03-23T13:16:25;3.60;;;3.03;;
1414;SDS011;702;49.466;11.086;2024-03-23T13:18:53;5.60;;;2.90;;
1414;SDS011;702;49.466;11.086;2024-03-23T13:21:19;3.20;;;2.57;;
1414;SDS011;702;49.466;11.086;2024-03-23T13:23:47;6.10;;;2.10;;
1414;SDS011;702;49.466;11.086;2024-03-23T13:26:15;4.00;;;2.33;;
1414;SDS011;702;49.466;11.086;2024-03-23T13:28:43;6.07;;;3.17;;
1414;SDS011;702;49.466;11.086;2024-03-23T13:31:11;5.90;;;2.93;;
1414;SDS011;702;49.466;11.086;2024-03-23T13:33:39;2.40;;;2.20;;
1414;SDS011;702;49.466;11.086;2024-03-23T13:36:07;5.03;;;3.00;;
1414;SDS011;702;49.466;11.086;2024-03-23T13:38:34;5.77;;;2.77;;
1414;SDS011;702;49.466;11.086;2024-03-23T13:41:01;3.43;;;2.57;;
1414;SDS011;702;49.466;11.086;2024-03-23T13:43:31;4.50;;;2.53;;
1414;SDS011;702;49.466;11.086;2024-03-23T13:45:58;4.10;;;2.50;;
1414;SDS011;702;49.466;11.086;2024-03-23T13:48:28;3.30;;;2.20;;
1414;SDS011;702;49.466;11.086;2024-03-23T13:50:58;5.73;;;2.50;;
1414;SDS011;702;49.466;11.086;2024-03-23T13:53:26;7.63;;;2.20;;
1414;SDS011;702;49.466;11.086;2024-03-23T13:55:52;3.00;;;2.30;;
1414;SDS011;702;49.466;11.086;2024-03-23T13:58:20;6.00;;;2.53;;
1414;SDS011;702;49.466;11.086;2024-03-23T14:00:47;3.60;;;2.43;;
1414;SDS011;702;49.466;11.086;2024-03-23T14:03:14;4.50;;;2.30;;
1414;SDS011;702;49.466;11.086;2024-03-23T14:05:42;6.27;;;2.00;;
1414;SDS011;702;49.466;11.086;2024-03-23T14:08:12;4.63;;;1.80;;
1414;SDS011;702;49.466;11.086;2024-03-23T14:10:40;4.60;;;2.10;;
1414;SDS011;702;49.466;11.086;2024-03-23T14:13:08;3.20;;;2.17;;
1414;SDS011;702;49.466;11.086;2024-03-23T14:15:35;4.00;;;2.37;;
1414;SDS011;702;49.466;11.086;2024-03-23T14:18:03;2.20;;;2.00;;
1414;SDS011;702;49.466;11.086;2024-03-23T14:20:30;5.03;;;2.27;;
1414;SDS011;702;49.466;11.086;2024-03-23T14:22:58;4.73;;;2.80;;
1414;SDS011;702;49.466;11.086;2024-03-23T14:25:25;3.27;;;2.13;;
1414;SDS011;702;49.466;11.086;2024-03-23T14:27:54;4.47;;;2.43;;
1414;SDS011;702;49.466;11.086;2024-03-23T14:30:21;4.40;;;2.40;;
1414;SDS011;702;49.466;11.086;2024-03-23T14:32:48;4.77;;;2.33;;
1414;SDS011;702;49.466;11.086;2024-03-23T14:35:14;4.77;;;1.87;;
1414;SDS011;702;49.466;11.086;2024-03-23T14:37:41;4.93;;;1.67;;
1414;SDS011;702;49.466;11.086;2024-03-23T14:40:09;2.77;;;1.43;;
1414;SDS011;702;49.466;11.086;2024-03-23T14:42:37;3.63;;;1.97;;
1414;SDS011;702;49.466;11.086;2024-03-23T14:45:04;4.10;;;2.00;;
1414;SDS011;702;49.466;11.086;2024-03-23T14:47:32;3.80;;;1.77;;
1414;SDS011;702;49.466;11.086;2024-03-23T14:49:58;3.07;;;1.93;;
1414;SDS011;702;49.466;11.086;2024-03-23T14:52:26;7.90;;;2.70;;
1414;SDS011;702;49.466;11.086;2024-03-23T14:54:52;2.70;;;2.17;;
1414;SDS011;702;49.466;11.086;2024-03-23T14:57:23;5.00;;;2.67;;
1414;SDS011;702;49.466;11.086;2024-03-23T14:59:49;2.83;;;2.33;;
1414;SDS011;702;49.466;11.086;2024-03-23T15:02:25;6.97;;;2.83;;
1414;SDS011;702;49.466;11.086;2024-03-23T15:04:52;4.90;;;2.57;;
1414;SDS011;702;49.466;11.086;2024-03-23T15:07:20;6.40;;;2.33;;
1414;SDS011;702;49.466;11.086;2024-03-23T15:09:47;5.60;;;2.70;;
1414;SDS011;702;49.466;11.086;2024-03-23T15:12:14;3.30;;;2.30;;
1414;SDS011;702;49.466;11.086;2024-03-23T15:14:42;5.50;;;2.43;;
1414;SDS011;702;49.466;11.086;2024-03-23T15:17:11;6.40;;;3.20;;
1414;SDS011;702;49.466;11.086;2024-03-23T15:19:37;3.80;;;2.30;;
1414;SDS011;702;49.466;11.086;2024-03-23T15:22:04;2.40;;;1.83;;
1414;SDS011;702;49.466;11.086;2024-03-23T15:24:30;2.87;;;1.90;;
1414;SDS011;702;49.466;11.086;2024-03-23T15:27:00;5.77;;;2.47;;
1414;SDS011;702;49.466;11.086;2024-03-23T15:29:26;9.27;;;3.47;;
1414;SDS011;702;49.466;11.086;2024-03-23T15:31:55;3.90;;;2.93;;
1414;SDS011;702;49.466;11.086;2024-03-23T15:34:21;4.77;;;3.20;;
1414;SDS011;702;49.466;11.086;2024-03-23T15:36:49;5.60;;;3.70;;
1414;SDS011;702;49.466;11.086;2024-03-23T15:39:16;4.30;;;3.03;;
1414;SDS011;702;49.466;11.086;2024-03-23T15:41:44;6.77;;;2.90;;
1414;SDS011;702;49.466;11.086;2024-03-23T15:44:11;3.53;;;2.70;;
1414;SDS011;702;49.466;11.086;2024-03-23T15:46:38;5.00;;;2.97;;
1414;SDS011;702;49.466;11.086;2024-03-23T15:49:06;5.20;;;3.50;;
1414;SDS011;702;49.466;11.086;2024-03-23T15:51:33;3.47;;;3.00;;
1414;SDS011;702;49.466;11.086;2024-03-23T15:54:02;4.00;;;2.63;;
1414;SDS011;702;49.466;11.086;2024-03-23T15:56:30;4.17;;;2.77;;
1414;SDS011;702;49.466;11.086;2024-03-23T15:58:57;7.00;;;3.20;;
1414;SDS011;702;49.466;11.086;2024-03-23T16:01:30;4.97;;;3.60;;
1414;SDS011;702;49.466;11.086;2024-03-23T16:03:59;6.87;;;3.30;;
1414;SDS011;702;49.466;11.086;2024-03-23T16:06:27;2.77;;;2.20;;
1414;SDS011;702;49.466;11.086;2024-03-23T16:08:54;6.40;;;2.50;;
1414;SDS011;702;49.466;11.086;2024-03-23T16:11:21;4.87;;;2.87;;
1414;SDS011;702;49.466;11.086;2024-03-23T16:13:48;3.10;;;2.60;;